Time;durP1;ratioP1;P1;durP2;ratioP2;P2;SDS_P1;SDS_P2;PMS_P1;PMS_P2;Temp;Humidity;BMP_temperature;BMP_pressure;BME280_temperature;BME280_humidity;BME280_pressure;Samples;Min_cycle;Max_cycle;Signal;HPM_P1;HPM_P2
2023/07/11 00:00:38;;;;;;;;;;;;;;;;;;5070395;28;19920;-76
2023/07/11 00:03:04;;;;;;;;;;;;;;;;;;5069993;28;19975;-76
2023/07/11 00:05:30;;;;;;;;;;;;;;;;;;5053925;28;20288;-77
2023/07/11 00:07:56;;;;;;;;;;;;;;;;;;5053598;28;19920;-76
2023/07/11 00:10:22;;;;;;;;;;;;;;;;;;5057367;28;19925;-76
2023/07/11 00:12:47;;;;;;;;;;;;;;;;;;5050080;28;19927;-77
2023/07/11 00:15:13;;;;;;;;;;;;;;;;;;5053860;28;19924;-76
2023/07/11 00:17:39;;;;;;;;;;;;;;;;;;5069597;28;20373;-78
2023/07/11 00:20:05;;;;;;;;;;;;;;;;;;5070593;28;20365;-76
2023/07/11 00:22:31;;;;;;;;;;;;;;;;;;5053626;28;19924;-76
2023/07/11 00:24:57;;;;;;;;;;;;;;;;;;5053077;28;20013;-76
2023/07/11 00:27:23;;;;;;;;;;;;;;;;;;5070434;28;20006;-76
2023/07/11 00:29:49;;;;;;;;;;;;;;;;;;5065881;28;19921;-77
2023/07/11 00:32:15;;;;;;;;;;;;;;;;;;5053922;28;19920;-76
2023/07/11 00:34:41;;;;;;;;;;;;;;;;;;5069165;28;19947;-77
2023/07/11 00:37:07;;;;;;;;;;;;;;;;;;5050389;28;19947;-76
2023/07/11 00:39:33;;;;;;;;;;;;;;;;;;5033820;28;19921;-76
2023/07/11 00:41:59;;;;;;;;;;;;;;;;;;5049401;28;20065;-76
2023/07/11 00:44:25;;;;;;;;;;;;;;;;;;5033357;28;19927;-76
2023/07/11 00:46:51;;;;;;;;;;;;;;;;;;5049540;28;19970;-77
2023/07/11 00:49:17;;;;;;;;;;;;;;;;;;5049485;28;19920;-76
2023/07/11 00:51:43;;;;;;;;;;;;;;;;;;5049379;28;19921;-76
2023/07/11 00:54:09;;;;;;;;;;;;;;;;;;5062936;28;19925;-76
2023/07/11 00:56:35;;;;;;;;;;;;;;;;;;5049746;28;19970;-76
2023/07/11 00:59:01;;;;;;;;;;;;;;;;;;5032906;28;20373;-77
2023/07/11 01:01:27;;;;;;;;;;;;;;;;;;5050209;28;20308;-76
2023/07/11 01:03:52;;;;;;;;;;;;;;;;;;5056144;28;19920;-76
2023/07/11 01:06:18;;;;;;;;;;;;;;;;;;5057537;28;20028;-76
2023/07/11 01:08:44;;;;;;;;;;;;;;;;;;5073366;28;19920;-76
2023/07/11 01:11:10;;;;;;;;;;;;;;;;;;5056128;28;20117;-76
2023/07/11 01:13:36;;;;;;;;;;;;;;;;;;5073739;28;19920;-76
2023/07/11 01:16:02;;;;;;;;;;;;;;;;;;5071794;28;19935;-76
2023/07/11 01:18:28;;;;;;;;;;;;;;;;;;5072801;28;19935;-76
2023/07/11 01:20:54;;;;;;;;;;;;;;;;;;5073512;28;19974;-76
2023/07/11 01:23:20;;;;;;;;;;;;;;;;;;5052965;28;20676;-76
2023/07/11 01:25:46;;;;;;;;;;;;;;;;;;5052853;28;19927;-77
2023/07/11 01:28:13;;;;;;;;;;;;;;;;;;5058304;28;20277;-76
2023/07/11 01:30:38;;;;;;;;;;;;;;;;;;5073649;28;19920;-76
2023/07/11 01:33:04;;;;;;;;;;;;;;;;;;5072492;28;19982;-76
2023/07/11 01:35:30;;;;;;;;;;;;;;;;;;5073614;28;20015;-76
2023/07/11 01:37:56;;;;;;;;;;;;;;;;;;5073052;28;19920;-77
2023/07/11 01:40:22;;;;;;;;;;;;;;;;;;5064209;28;20316;-76
2023/07/11 01:42:49;;;;;;;;;;;;;;;;;;5053011;28;19921;-77
2023/07/11 01:45:14;;;;;;;;;;;;;;;;;;5058184;28;19971;-75
2023/07/11 01:47:40;;;;;;;;;;;;;;;;;;5052719;28;19979;-77
2023/07/11 01:50:07;;;;;;;;;;;;;;;;;;5052857;28;19928;-77
2023/07/11 01:52:33;;;;;;;;;;;;;;;;;;5053512;28;19920;-76
2023/07/11 01:54:58;;;;;;;;;;;;;;;;;;5055474;28;19920;-77
2023/07/11 01:57:24;;;;;;;;;;;;;;;;;;5073336;28;20353;-76
2023/07/11 01:59:51;;;;;;;;;;;;;;;;;;5072499;28;20410;-76
2023/07/11 02:02:17;;;;;;;;;;;;;;;;;;5073206;28;20003;-76
2023/07/11 02:04:43;;;;;;;;;;;;;;;;;;5072199;28;20042;-76
2023/07/11 02:07:08;;;;;;;;;;;;;;;;;;5061228;28;19928;-76
2023/07/11 02:09:35;;;;;;;;;;;;;;;;;;5058379;28;19920;-76
2023/07/11 02:12:01;;;;;;;;;;;;;;;;;;5069699;28;19921;-76
2023/07/11 02:14:27;;;;;;;;;;;;;;;;;;5062615;28;19969;-76
2023/07/11 02:16:53;;;;;;;;;;;;;;;;;;5079278;28;19920;-76
2023/07/11 02:19:19;;;;;;;;;;;;;;;;;;5076306;28;20006;-76
2023/07/11 02:21:45;;;;;;;;;;;;;;;;;;5080534;28;20012;-76
2023/07/11 02:24:11;;;;;;;;;;;;;;;;;;5055186;28;19925;-76
2023/07/11 02:26:37;;;;;;;;;;;;;;;;;;5071573;28;19920;-76
2023/07/11 02:29:03;;;;;;;;;;;;;;;;;;5071490;28;19967;-76
2023/07/11 02:31:30;;;;;;;;;;;;;;;;;;5054070;28;19924;-76
2023/07/11 02:33:56;;;;;;;;;;;;;;;;;;5071391;28;19920;-77
2023/07/11 02:36:22;;;;;;;;;;;;;;;;;;5055874;28;19924;-76
2023/07/11 02:38:48;;;;;;;;;;;;;;;;;;5052484;28;19925;-77
2023/07/11 02:41:14;;;;;;;;;;;;;;;;;;5059609;28;19924;-76
2023/07/11 02:43:40;;;;;;;;;;;;;;;;;;5064905;28;20262;-76
2023/07/11 02:46:06;;;;;;;;;;;;;;;;;;5051850;28;19924;-76
2023/07/11 02:48:32;;;;;;;;;;;;;;;;;;5054204;28;19928;-76
2023/07/11 02:50:58;;;;;;;;;;;;;;;;;;5051648;28;19928;-76
2023/07/11 02:53:24;;;;;;;;;;;;;;;;;;5052232;28;19927;-76
2023/07/11 02:55:50;;;;;;;;;;;;;;;;;;5068969;28;20361;-76
2023/07/11 02:58:16;;;;;;;;;;;;;;;;;;5062799;28;20393;-76
2023/07/11 03:00:42;;;;;;;;;;;;;;;;;;5052334;28;20399;-76
2023/07/11 03:03:07;;;;;;;;;;;;;;;;;;5050796;28;19925;-76
2023/07/11 03:05:33;;;;;;;;;;;;;;;;;;5052043;28;19924;-76
2023/07/11 03:07:59;;;;;;;;;;;;;;;;;;5051593;28;20038;-76
2023/07/11 03:10:25;;;;;;;;;;;;;;;;;;5051444;28;19924;-76
2023/07/11 03:12:51;;;;;;;;;;;;;;;;;;5051380;28;20144;-76
2023/07/11 03:15:17;;;;;;;;;;;;;;;;;;5051351;28;20015;-76
2023/07/11 03:17:43;;;;;;;;;;;;;;;;;;5050582;28;19924;-76
2023/07/11 03:20:09;;;;;;;;;;;;;;;;;;5050988;28;19931;-76
2023/07/11 03:22:35;;;;;;;;;;;;;;;;;;5053542;28;19924;-76
2023/07/11 03:25:01;;;;;;;;;;;;;;;;;;5070783;28;20425;-76
2023/07/11 03:27:27;;;;;;;;;;;;;;;;;;5071029;28;20341;-76
2023/07/11 03:29:53;;;;;;;;;;;;;;;;;;5059725;28;20361;-76
2023/07/11 03:32:19;;;;;;;;;;;;;;;;;;5071045;28;19924;-76
2023/07/11 03:34:45;;;;;;;;;;;;;;;;;;5070521;28;19978;-76
2023/07/11 03:37:11;;;;;;;;;;;;;;;;;;5070571;28;19924;-76
2023/07/11 03:39:37;;;;;;;;;;;;;;;;;;5054512;28;19924;-76
2023/07/11 03:42:03;;;;;;;;;;;;;;;;;;5053619;28;20372;-76
2023/07/11 03:44:29;;;;;;;;;;;;;;;;;;5070966;28;20384;-76
2023/07/11 03:46:55;;;;;;;;;;;;;;;;;;5069540;28;20325;-76
2023/07/11 03:49:21;;;;;;;;;;;;;;;;;;5069771;28;20281;-76
2023/07/11 03:51:46;;;;;;;;;;;;;;;;;;5050423;28;19924;-76
2023/07/11 03:54:12;;;;;;;;;;;;;;;;;;5033926;28;19925;-76
2023/07/11 03:56:38;;;;;;;;;;;;;;;;;;5040555;28;19927;-76
2023/07/11 03:59:04;;;;;;;;;;;;;;;;;;5053557;28;20398;-76
2023/07/11 04:01:30;;;;;;;;;;;;;;;;;;5071095;28;20365;-76
2023/07/11 04:03:56;;;;;;;;;;;;;;;;;;5053416;28;20478;-76
2023/07/11 04:06:22;;;;;;;;;;;;;;;;;;5068351;28;20499;-76
2023/07/11 04:08:48;;;;;;;;;;;;;;;;;;5069317;28;20311;-76
2023/07/11 04:11:14;;;;;;;;;;;;;;;;;;5049632;28;20253;-76
2023/07/11 04:13:40;;;;;;;;;;;;;;;;;;5050506;28;20011;-76
2023/07/11 04:16:06;;;;;;;;;;;;;;;;;;5056291;28;19928;-76
2023/07/11 04:18:32;;;;;;;;;;;;;;;;;;5053270;28;19928;-76
2023/07/11 04:20:58;;;;;;;;;;;;;;;;;;5070606;28;19928;-76
2023/07/11 04:23:24;;;;;;;;;;;;;;;;;;5068996;28;19924;-76
2023/07/11 04:25:49;;;;;;;;;;;;;;;;;;5069581;28;19931;-77
2023/07/11 04:28:15;;;;;;;;;;;;;;;;;;5067471;28;19959;-76
2023/07/11 04:30:41;;;;;;;;;;;;;;;;;;5069878;28;19931;-76
2023/07/11 04:33:07;;;;;;;;;;;;;;;;;;5067869;28;20365;-76
2023/07/11 04:35:33;;;;;;;;;;;;;;;;;;5053784;28;20448;-76
2023/07/11 04:37:59;;;;;;;;;;;;;;;;;;5053775;28;19924;-76
2023/07/11 04:40:25;;;;;;;;;;;;;;;;;;5054972;28;19920;-77
2023/07/11 04:42:51;;;;;;;;;;;;;;;;;;5050193;28;19964;-76
2023/07/11 04:45:17;;;;;;;;;;;;;;;;;;5049782;28;20416;-76
2023/07/11 04:47:43;;;;;;;;;;;;;;;;;;5049613;28;20399;-77
2023/07/11 04:50:09;;;;;;;;;;;;;;;;;;5053385;28;19920;-76
2023/07/11 04:52:35;;;;;;;;;;;;;;;;;;5050432;28;19971;-77
2023/07/11 04:55:01;;;;;;;;;;;;;;;;;;5049979;28;19925;-76
2023/07/11 04:57:27;;;;;;;;;;;;;;;;;;5052860;28;19971;-76
2023/07/11 04:59:53;;;;;;;;;;;;;;;;;;5069950;28;19990;-76
2023/07/11 05:02:19;;;;;;;;;;;;;;;;;;5051010;28;19921;-76
2023/07/11 05:04:45;;;;;;;;;;;;;;;;;;5032683;28;20480;-76
2023/07/11 05:07:11;;;;;;;;;;;;;;;;;;5032793;28;19928;-76
2023/07/11 05:09:38;;;;;;;;;;;;;;;;;;5038962;28;20025;-77
2023/07/11 05:12:04;;;;;;;;;;;;;;;;;;5049301;28;20045;-79
2023/07/11 05:14:29;;;;;;;;;;;;;;;;;;5049601;28;20397;-77
2023/07/11 05:16:55;;;;;;;;;;;;;;;;;;5050091;28;20356;-76
2023/07/11 05:19:21;;;;;;;;;;;;;;;;;;5048582;28;20169;-77
2023/07/11 05:21:47;;;;;;;;;;;;;;;;;;5059314;28;20090;-76
2023/07/11 05:24:13;;;;;;;;;;;;;;;;;;5052790;28;19924;-77
2023/07/11 05:26:39;;;;;;;;;;;;;;;;;;5052478;28;19920;-76
2023/07/11 05:29:05;;;;;;;;;;;;;;;;;;5058823;28;19967;-78
2023/07/11 05:31:31;;;;;;;;;;;;;;;;;;5049411;28;19921;-77
2023/07/11 05:33:57;;;;;;;;;;;;;;;;;;5036996;28;20378;-77
2023/07/11 05:38:49;;;;;;;;;;;;;;;;;;5069764;28;19971;-76
2023/07/11 05:41:15;;;;;;;;;;;;;;;;;;5052297;28;19926;-77
2023/07/11 05:43:41;;;;;;;;;;;;;;;;;;5069432;28;20353;-77
2023/07/11 05:46:07;;;;;;;;;;;;;;;;;;5069502;28;20273;-78
2023/07/11 05:48:33;;;;;;;;;;;;;;;;;;5051790;28;19921;-77
2023/07/11 05:50:59;;;;;;;;;;;;;;;;;;5069029;28;19927;-76
2023/07/11 05:53:25;;;;;;;;;;;;;;;;;;5065291;28;20008;-76
2023/07/11 05:55:51;;;;;;;;;;;;;;;;;;5057118;28;20301;-76
2023/07/11 05:58:17;;;;;;;;;;;;;;;;;;5035843;28;19920;-76
2023/07/11 06:00:43;;;;;;;;;;;;;;;;;;5062342;28;19924;-77
2023/07/11 06:03:09;;;;;;;;;;;;;;;;;;5054536;28;19967;-77
2023/07/11 06:05:34;;;;;;;;;;;;;;;;;;5053157;28;20349;-77
2023/07/11 06:08:00;;;;;;;;;;;;;;;;;;5056340;28;20293;-76
2023/07/11 06:10:26;;;;;;;;;;;;;;;;;;5071903;28;20032;-77
2023/07/11 06:12:52;;;;;;;;;;;;;;;;;;5056275;28;20017;-77
2023/07/11 06:15:18;;;;;;;;;;;;;;;;;;5072152;28;19925;-77
2023/07/11 06:17:44;;;;;;;;;;;;;;;;;;5054285;28;19932;-77
2023/07/11 06:20:11;;;;;;;;;;;;;;;;;;5072852;28;19920;-78
2023/07/11 06:22:36;;;;;;;;;;;;;;;;;;5070542;28;20392;-77
2023/07/11 06:25:02;;;;;;;;;;;;;;;;;;5067755;28;19925;-76
2023/07/11 06:27:28;;;;;;;;;;;;;;;;;;5068311;28;20403;-77
2023/07/11 06:29:54;;;;;;;;;;;;;;;;;;5072274;28;19921;-76
2023/07/11 06:32:20;;;;;;;;;;;;;;;;;;5072030;28;20018;-78
2023/07/11 06:34:46;;;;;;;;;;;;;;;;;;5071982;28;19925;-78
2023/07/11 06:37:12;;;;;;;;;;;;;;;;;;5072420;28;19924;-78
2023/07/11 06:39:38;;;;;;;;;;;;;;;;;;5055195;28;19921;-81
2023/07/11 06:42:04;;;;;;;;;;;;;;;;;;5054308;28;19927;-76
2023/07/11 06:44:30;;;;;;;;;;;;;;;;;;5083050;28;19955;-76
2023/07/11 06:46:56;;;;;;;;;;;;;;;;;;5058100;28;19928;-76
2023/07/11 06:49:22;;;;;;;;;;;;;;;;;;5064743;28;19924;-76
2023/07/11 06:51:49;;;;;;;;;;;;;;;;;;5072127;28;19927;-76
2023/07/11 06:54:15;;;;;;;;;;;;;;;;;;5061103;28;19925;-76
2023/07/11 06:56:41;;;;;;;;;;;;;;;;;;5053484;28;20377;-76
2023/07/11 06:59:08;;;;;;;;;;;;;;;;;;5071998;28;20304;-76
2023/07/11 07:01:34;;;;;;;;;;;;;;;;;;5071164;28;19928;-76
2023/07/11 07:04:00;;;;;;;;;;;;;;;;;;5052524;28;19920;-76
2023/07/11 07:06:26;;;;;;;;;;;;;;;;;;5071571;28;19996;-76
2023/07/11 07:08:52;;;;;;;;;;;;;;;;;;5064869;28;20393;-76
2023/07/11 07:11:18;;;;;;;;;;;;;;;;;;5052786;28;19927;-76
2023/07/11 07:13:44;;;;;;;;;;;;;;;;;;5071458;28;19964;-76
2023/07/11 07:16:10;;;;;;;;;;;;;;;;;;5071289;28;19920;-76
2023/07/11 07:18:39;;;;;;;;;;;;;;;;;;5070454;28;19935;-76
2023/07/11 07:21:05;;;;;;;;;;;;;;;;;;5055111;28;19970;-76
2023/07/11 07:23:33;;;;;;;;;;;;;;;;;;5069542;28;20273;-69
2023/07/11 07:25:59;;;;;;;;;;;;;;;;;;5065751;28;19924;-68
2023/07/11 07:28:25;;;;;;;;;;;;;;;;;;5063655;28;20331;-68
2023/07/11 07:30:54;;;;;;;;;;;;;;;;;;5071541;28;20613;-67
2023/07/11 07:33:21;;;;;;;;;;;;;;;;;;5070453;28;19960;-74
2023/07/11 07:35:47;;;;;;;;;;;;;;;;;;5067240;28;20401;-71
2023/07/11 07:38:13;;;;;;;;;;;;;;;;;;5074246;28;19931;-72
2023/07/11 07:40:38;;;;;;;;;;;;;;;;;;5089808;28;19919;-72
2023/07/11 07:43:04;;;;;;;;;;;;;;;;;;5091054;28;20356;-73
2023/07/11 07:45:30;;;;;;;;;;;;;;;;;;5075561;28;19955;-72
2023/07/11 07:47:56;;;;;;;;;;;;;;;;;;5080356;28;19966;-72
2023/07/11 07:50:22;;;;;;;;;;;;;;;;;;5060070;28;20304;-73
2023/07/11 07:52:48;;;;;;;;;;;;;;;;;;5090449;28;19985;-73
2023/07/11 07:55:14;;;;;;;;;;;;;;;;;;5089537;28;19924;-72
2023/07/11 07:57:40;;;;;;;;;;;;;;;;;;5088864;28;19928;-72
2023/07/11 08:00:06;;;;;;;;;;;;;;;;;;5090866;28;19927;-71
2023/07/11 08:02:32;;;;;;;;;;;;;;;;;;5090210;28;19923;-73
2023/07/11 08:04:58;;;;;;;;;;;;;;;;;;5088559;28;20340;-73
2023/07/11 08:07:24;;;;;;;;;;;;;;;;;;5076549;28;20065;-70
2023/07/11 08:09:50;;;;;;;;;;;;;;;;;;5070435;28;19932;-73
2023/07/11 08:12:16;;;;;;;;;;;;;;;;;;5081983;28;20065;-72
2023/07/11 08:14:42;;;;;;;;;;;;;;;;;;5059738;28;20136;-73
2023/07/11 08:17:08;;;;;;;;;;;;;;;;;;5076629;28;19931;-74
2023/07/11 08:19:34;;;;;;;;;;;;;;;;;;5071870;28;19924;-81
2023/07/11 08:22:00;;;;;;;;;;;;;;;;;;5072275;28;19950;-82
2023/07/11 08:24:26;;;;;;;;;;;;;;;;;;5059281;28;19951;-81
2023/07/11 08:26:52;;;;;;;;;;;;;;;;;;5064907;28;20177;-79
2023/07/11 08:29:19;;;;;;;;;;;;;;;;;;5072434;28;19966;-78
2023/07/11 08:31:45;;;;;;;;;;;;;;;;;;5056220;28;20033;-78
2023/07/11 08:34:20;;;;;;;;;;;;;;;;;;5086788;28;19920;-77
2023/07/11 08:36:49;;;;;;;;;;;;;;;;;;5066464;28;20026;-78
2023/07/11 08:39:14;;;;;;;;;;;;;;;;;;5080880;28;19959;-79
2023/07/11 08:41:40;;;;;;;;;;;;;;;;;;5072430;28;19974;-78
2023/07/11 08:44:06;;;;;;;;;;;;;;;;;;5072914;28;20291;-79
2023/07/11 08:46:32;;;;;;;;;;;;;;;;;;5061215;28;19946;-78
2023/07/11 08:48:58;;;;;;;;;;;;;;;;;;5074521;28;19920;-78
2023/07/11 08:51:24;;;;;;;;;;;;;;;;;;5072064;28;19920;-78
2023/07/11 08:53:50;;;;;;;;;;;;;;;;;;5069682;28;19928;-78
2023/07/11 08:56:16;;;;;;;;;;;;;;;;;;5052911;28;19920;-78
2023/07/11 08:58:42;;;;;;;;;;;;;;;;;;5071237;28;20368;-79
2023/07/11 09:01:08;;;;;;;;;;;;;;;;;;5090184;28;19919;-78
2023/07/11 09:03:34;;;;;;;;;;;;;;;;;;5058579;28;19927;-78
2023/07/11 09:06:00;;;;;;;;;;;;;;;;;;5090134;28;19952;-78
2023/07/11 09:08:26;;;;;;;;;;;;;;;;;;5072431;28;19920;-79
2023/07/11 09:10:52;;;;;;;;;;;;;;;;;;5071093;28;19935;-78
2023/07/11 09:13:18;;;;;;;;;;;;;;;;;;5076182;28;20423;-79
2023/07/11 09:15:48;;;;;;;;;;;;;;;;;;5087658;28;20288;-79
2023/07/11 09:18:14;;;;;;;;;;;;;;;;;;5058813;28;19932;-79
2023/07/11 09:20:40;;;;;;;;;;;;;;;;;;5065297;28;20300;-79
2023/07/11 09:23:08;;;;;;;;;;;;;;;;;;5065858;28;19998;-79
2023/07/11 09:25:34;;;;;;;;;;;;;;;;;;5077593;28;20060;-79
2023/07/11 09:28:06;;;;;;;;;;;;;;;;;;5093623;28;19923;-78
2023/07/11 09:30:32;;;;;;;;;;;;;;;;;;5075291;28;19931;-79
2023/07/11 09:32:58;;;;;;;;;;;;;;;;;;5092553;28;19924;-78
2023/07/11 09:35:24;;;;;;;;;;;;;;;;;;5071658;28;19927;-78
2023/07/11 09:37:50;;;;;;;;;;;;;;;;;;5073695;28;19931;-78
2023/07/11 09:40:16;;;;;;;;;;;;;;;;;;5056290;28;20003;-78
2023/07/11 09:42:42;;;;;;;;;;;;;;;;;;5056066;28;20349;-79
2023/07/11 09:45:08;;;;;;;;;;;;;;;;;;5056225;28;19930;-78
2023/07/11 09:47:35;;;;;;;;;;;;;;;;;;5072949;28;19920;-78
2023/07/11 09:50:01;;;;;;;;;;;;;;;;;;5055603;28;19921;-79
2023/07/11 09:52:27;;;;;;;;;;;;;;;;;;5053294;28;20380;-78
2023/07/11 09:54:53;;;;;;;;;;;;;;;;;;5052897;28;20467;-78
2023/07/11 09:57:19;;;;;;;;;;;;;;;;;;5052506;28;19921;-78
2023/07/11 09:59:45;;;;;;;;;;;;;;;;;;5052556;28;19970;-78
2023/07/11 10:02:11;;;;;;;;;;;;;;;;;;5053048;28;20322;-78
2023/07/11 10:04:37;;;;;;;;;;;;;;;;;;5051313;28;19920;-78
2023/07/11 10:07:06;;;;;;;;;;;;;;;;;;5056165;28;19971;-77
2023/07/11 10:09:32;;;;;;;;;;;;;;;;;;5073196;28;19924;-77
2023/07/11 10:11:58;;;;;;;;;;;;;;;;;;5055119;28;19974;-78
2023/07/11 10:14:24;;;;;;;;;;;;;;;;;;5072252;28;19927;-78
2023/07/11 10:16:50;;;;;;;;;;;;;;;;;;5072564;28;19920;-78
2023/07/11 10:19:16;;;;;;;;;;;;;;;;;;5052490;28;19920;-77
2023/07/11 10:21:42;;;;;;;;;;;;;;;;;;5055460;28;19924;-78
2023/07/11 10:24:08;;;;;;;;;;;;;;;;;;5055795;28;19955;-78
2023/07/11 10:26:34;;;;;;;;;;;;;;;;;;5055516;28;19921;-79
2023/07/11 10:29:00;;;;;;;;;;;;;;;;;;5055541;28;20058;-78
2023/07/11 10:31:26;;;;;;;;;;;;;;;;;;5072005;28;19924;-77
2023/07/11 10:33:52;;;;;;;;;;;;;;;;;;5066882;28;19935;-79
2023/07/11 10:36:19;;;;;;;;;;;;;;;;;;5059497;28;20077;-80
2023/07/11 10:38:45;;;;;;;;;;;;;;;;;;5054183;28;20086;-79
2023/07/11 10:41:11;;;;;;;;;;;;;;;;;;5070712;28;19920;-82
2023/07/11 10:43:37;;;;;;;;;;;;;;;;;;5057462;28;20005;-83
2023/07/11 10:46:03;;;;;;;;;;;;;;;;;;5079984;28;19999;-79
2023/07/11 10:48:32;;;;;;;;;;;;;;;;;;5063955;28;19932;-78
2023/07/11 10:51:04;;;;;;;;;;;;;;;;;;5091312;28;19946;-79
2023/07/11 10:53:31;;;;;;;;;;;;;;;;;;5085248;28;19977;-79
2023/07/11 10:55:57;;;;;;;;;;;;;;;;;;5071676;28;20489;-78
2023/07/11 10:58:23;;;;;;;;;;;;;;;;;;5072670;28;19990;-78
2023/07/11 11:00:49;;;;;;;;;;;;;;;;;;5059772;28;19980;-80
2023/07/11 11:03:16;;;;;;;;;;;;;;;;;;5088974;28;20007;-79
2023/07/11 11:05:42;;;;;;;;;;;;;;;;;;5073209;28;19919;-78
2023/07/11 11:08:09;;;;;;;;;;;;;;;;;;5066471;28;19925;-78
2023/07/11 11:10:35;;;;;;;;;;;;;;;;;;5075092;28;19920;-77
2023/07/11 11:13:01;;;;;;;;;;;;;;;;;;5061799;28;19927;-77
2023/07/11 11:15:27;;;;;;;;;;;;;;;;;;5085183;28;19920;-77
2023/07/11 11:17:53;;;;;;;;;;;;;;;;;;5082600;28;19928;-77
2023/07/11 11:20:19;;;;;;;;;;;;;;;;;;5073992;28;19920;-78
2023/07/11 11:22:45;;;;;;;;;;;;;;;;;;5090626;28;19931;-74
2023/07/11 11:25:11;;;;;;;;;;;;;;;;;;5090994;28;19970;-74
2023/07/11 11:27:37;;;;;;;;;;;;;;;;;;5090866;28;20407;-75
2023/07/11 11:30:03;;;;;;;;;;;;;;;;;;5071307;28;19963;-74
2023/07/11 11:32:30;;;;;;;;;;;;;;;;;;5070648;28;19978;-74
2023/07/11 11:34:56;;;;;;;;;;;;;;;;;;5069720;28;19920;-74
2023/07/11 11:37:22;;;;;;;;;;;;;;;;;;5066317;28;20181;-75
2023/07/11 11:39:48;;;;;;;;;;;;;;;;;;5090145;28;19919;-77
2023/07/11 11:42:16;;;;;;;;;;;;;;;;;;5089966;28;20018;-79
2023/07/11 11:44:42;;;;;;;;;;;;;;;;;;5090494;28;19927;-79
2023/07/11 11:47:08;;;;;;;;;;;;;;;;;;5070461;28;20281;-79
2023/07/11 11:49:34;;;;;;;;;;;;;;;;;;5063994;28;19997;-79
2023/07/11 11:52:00;;;;;;;;;;;;;;;;;;5077542;28;20360;-79
2023/07/11 11:54:26;;;;;;;;;;;;;;;;;;5070988;28;20364;-79
2023/07/11 11:56:52;;;;;;;;;;;;;;;;;;5083003;28;20318;-79
2023/07/11 11:59:18;;;;;;;;;;;;;;;;;;5091024;28;20330;-78
2023/07/11 12:01:44;;;;;;;;;;;;;;;;;;5073779;28;19920;-79
2023/07/11 12:04:10;;;;;;;;;;;;;;;;;;5090316;28;19920;-79
2023/07/11 12:06:36;;;;;;;;;;;;;;;;;;5073380;28;19969;-79
2023/07/11 12:09:02;;;;;;;;;;;;;;;;;;5055283;28;19943;-79
2023/07/11 12:11:29;;;;;;;;;;;;;;;;;;5085845;28;19974;-79
2023/07/11 12:13:54;;;;;;;;;;;;;;;;;;5082859;28;19920;-78
2023/07/11 12:16:21;;;;;;;;;;;;;;;;;;5067604;28;19927;-79
2023/07/11 12:18:48;;;;;;;;;;;;;;;;;;5082450;28;19927;-79
2023/07/11 12:21:14;;;;;;;;;;;;;;;;;;5069939;28;19931;-80
2023/07/11 12:23:40;;;;;;;;;;;;;;;;;;5078206;28;19999;-80
2023/07/11 12:26:06;;;;;;;;;;;;;;;;;;5088880;28;19924;-79
2023/07/11 12:28:32;;;;;;;;;;;;;;;;;;5074970;28;19924;-80
2023/07/11 12:30:58;;;;;;;;;;;;;;;;;;5053244;28;19967;-80
2023/07/11 12:33:24;;;;;;;;;;;;;;;;;;5088639;28;20356;-79
2023/07/11 12:35:49;;;;;;;;;;;;;;;;;;5090124;28;20311;-79
2023/07/11 12:38:15;;;;;;;;;;;;;;;;;;5084343;28;19930;-79
2023/07/11 12:40:41;;;;;;;;;;;;;;;;;;5065608;28;19959;-79
2023/07/11 12:43:07;;;;;;;;;;;;;;;;;;5089317;28;20118;-79
2023/07/11 12:45:33;;;;;;;;;;;;;;;;;;5090430;28;19924;-79
2023/07/11 12:47:59;;;;;;;;;;;;;;;;;;5088625;28;19930;-79
2023/07/11 12:50:25;;;;;;;;;;;;;;;;;;5073169;28;19924;-79
2023/07/11 12:52:51;;;;;;;;;;;;;;;;;;5082373;28;20015;-80
2023/07/11 12:55:17;;;;;;;;;;;;;;;;;;5062316;28;19978;-80
2023/07/11 12:57:44;;;;;;;;;;;;;;;;;;5056193;28;19927;-79
2023/07/11 13:00:10;;;;;;;;;;;;;;;;;;5068915;28;19946;-79
2023/07/11 13:02:36;;;;;;;;;;;;;;;;;;5070140;28;20381;-80
2023/07/11 13:05:03;;;;;;;;;;;;;;;;;;5052627;28;19969;-79
2023/07/11 13:07:29;;;;;;;;;;;;;;;;;;5070275;28;19920;-79
2023/07/11 13:09:56;;;;;;;;;;;;;;;;;;5052708;28;20466;-80
2023/07/11 13:12:22;;;;;;;;;;;;;;;;;;5069456;28;19928;-79
2023/07/11 13:14:48;;;;;;;;;;;;;;;;;;5067161;28;20372;-80
2023/07/11 13:17:14;;;;;;;;;;;;;;;;;;5049706;28;19935;-79
2023/07/11 13:19:40;;;;;;;;;;;;;;;;;;5049023;28;19924;-79
2023/07/11 13:22:06;;;;;;;;;;;;;;;;;;5051902;28;19932;-79
2023/07/11 13:24:32;;;;;;;;;;;;;;;;;;5050055;28;19976;-79
2023/07/11 13:26:58;;;;;;;;;;;;;;;;;;5054955;28;19939;-79
2023/07/11 13:29:24;;;;;;;;;;;;;;;;;;5049763;28;19931;-79
2023/07/11 13:31:50;;;;;;;;;;;;;;;;;;5049581;28;19925;-80
2023/07/11 13:34:16;;;;;;;;;;;;;;;;;;5049016;28;19925;-79
2023/07/11 13:36:42;;;;;;;;;;;;;;;;;;5049886;28;20456;-79
2023/07/11 13:39:08;;;;;;;;;;;;;;;;;;5064445;28;19931;-79
2023/07/11 13:41:35;;;;;;;;;;;;;;;;;;5049567;28;19920;-79
2023/07/11 13:44:01;;;;;;;;;;;;;;;;;;5049072;28;20388;-79
2023/07/11 13:46:28;;;;;;;;;;;;;;;;;;5049972;28;19920;-79
2023/07/11 13:48:54;;;;;;;;;;;;;;;;;;5054357;28;19925;-80
2023/07/11 13:51:20;;;;;;;;;;;;;;;;;;5069608;28;19970;-79
2023/07/11 13:53:46;;;;;;;;;;;;;;;;;;5053087;28;19928;-79
2023/07/11 13:56:12;;;;;;;;;;;;;;;;;;5052040;28;20003;-79
2023/07/11 13:58:37;;;;;;;;;;;;;;;;;;5066547;28;19920;-79
2023/07/11 14:01:04;;;;;;;;;;;;;;;;;;5069377;28;19943;-79
2023/07/11 14:03:30;;;;;;;;;;;;;;;;;;5068898;28;19920;-79
2023/07/11 14:05:57;;;;;;;;;;;;;;;;;;5069201;28;19928;-79
2023/07/11 14:08:25;;;;;;;;;;;;;;;;;;5069602;28;19978;-79
2023/07/11 14:10:51;;;;;;;;;;;;;;;;;;5053789;28;19920;-79
2023/07/11 14:13:17;;;;;;;;;;;;;;;;;;5052234;28;19921;-79
2023/07/11 14:15:43;;;;;;;;;;;;;;;;;;5055495;28;19960;-79
2023/07/11 14:18:09;;;;;;;;;;;;;;;;;;5071796;28;19927;-79
2023/07/11 14:20:35;;;;;;;;;;;;;;;;;;5070822;28;19928;-79
2023/07/11 14:23:01;;;;;;;;;;;;;;;;;;5063394;28;20270;-79
2023/07/11 14:25:28;;;;;;;;;;;;;;;;;;5072521;28;19924;-79
2023/07/11 14:27:55;;;;;;;;;;;;;;;;;;5072224;28;20439;-79
2023/07/11 14:30:21;;;;;;;;;;;;;;;;;;5055961;28;19971;-79
2023/07/11 14:32:47;;;;;;;;;;;;;;;;;;5067242;28;20025;-79
2023/07/11 14:35:13;;;;;;;;;;;;;;;;;;5052207;28;19924;-79
2023/07/11 14:37:39;;;;;;;;;;;;;;;;;;5052511;28;20015;-79
2023/07/11 14:40:05;;;;;;;;;;;;;;;;;;5051943;28;19971;-79
2023/07/11 14:42:31;;;;;;;;;;;;;;;;;;5052509;28;20368;-79
2023/07/11 14:44:57;;;;;;;;;;;;;;;;;;5070048;28;20005;-79
2023/07/11 14:47:23;;;;;;;;;;;;;;;;;;5071231;28;19924;-79
2023/07/11 14:49:49;;;;;;;;;;;;;;;;;;5071302;28;19920;-79
2023/07/11 14:52:15;;;;;;;;;;;;;;;;;;5070262;28;19928;-79
2023/07/11 14:54:41;;;;;;;;;;;;;;;;;;5053145;28;19920;-79
2023/07/11 14:57:07;;;;;;;;;;;;;;;;;;5050507;28;19920;-79
2023/07/11 14:59:34;;;;;;;;;;;;;;;;;;5035192;28;20003;-79
2023/07/11 15:02:00;;;;;;;;;;;;;;;;;;5057100;28;20023;-78
2023/07/11 15:04:26;;;;;;;;;;;;;;;;;;5069690;28;19943;-77
2023/07/11 15:06:52;;;;;;;;;;;;;;;;;;5070557;28;20007;-78
2023/07/11 15:09:18;;;;;;;;;;;;;;;;;;5066454;28;19947;-78
2023/07/11 15:11:47;;;;;;;;;;;;;;;;;;5075725;28;20380;-78
2023/07/11 15:14:13;;;;;;;;;;;;;;;;;;5090051;28;19980;-78
2023/07/11 15:16:39;;;;;;;;;;;;;;;;;;5076168;28;19920;-78
2023/07/11 15:19:05;;;;;;;;;;;;;;;;;;5089782;28;19932;-78
2023/07/11 15:21:31;;;;;;;;;;;;;;;;;;5091328;28;19924;-78
2023/07/11 15:23:57;;;;;;;;;;;;;;;;;;5082227;28;19921;-79
2023/07/11 15:26:24;;;;;;;;;;;;;;;;;;5085089;28;19924;-79
2023/07/11 15:28:50;;;;;;;;;;;;;;;;;;5083955;28;19920;-78
2023/07/11 15:31:16;;;;;;;;;;;;;;;;;;5070776;28;19927;-78
2023/07/11 15:33:42;;;;;;;;;;;;;;;;;;5088209;28;19920;-79
2023/07/11 15:36:08;;;;;;;;;;;;;;;;;;5090057;28;19920;-84
2023/07/11 15:38:34;;;;;;;;;;;;;;;;;;5091262;28;19920;-83
2023/07/11 15:41:00;;;;;;;;;;;;;;;;;;5090749;28;20011;-82
2023/07/11 15:43:26;;;;;;;;;;;;;;;;;;5090503;28;19924;-82
2023/07/11 15:45:52;;;;;;;;;;;;;;;;;;5081027;28;19920;-73
2023/07/11 15:48:17;;;;;;;;;;;;;;;;;;5080540;28;19930;-74
2023/07/11 15:50:43;;;;;;;;;;;;;;;;;;5058424;28;20381;-76
2023/07/11 15:53:10;;;;;;;;;;;;;;;;;;5076586;28;19966;-76
2023/07/11 15:55:36;;;;;;;;;;;;;;;;;;5065479;28;20356;-72
2023/07/11 15:58:02;;;;;;;;;;;;;;;;;;5089585;28;19964;-76
2023/07/11 16:00:28;;;;;;;;;;;;;;;;;;5074411;28;19927;-72
2023/07/11 16:02:54;;;;;;;;;;;;;;;;;;5091105;28;20004;-74
2023/07/11 16:05:20;;;;;;;;;;;;;;;;;;5090012;28;20431;-72
2023/07/11 16:07:46;;;;;;;;;;;;;;;;;;5089229;28;19920;-70
2023/07/11 16:10:12;;;;;;;;;;;;;;;;;;5063617;28;20405;-71
2023/07/11 16:12:38;;;;;;;;;;;;;;;;;;5078300;28;19942;-70
2023/07/11 16:15:04;;;;;;;;;;;;;;;;;;5082895;28;20434;-70
2023/07/11 16:17:30;;;;;;;;;;;;;;;;;;5085544;28;20433;-76
2023/07/11 16:19:55;;;;;;;;;;;;;;;;;;5070979;28;19943;-76
2023/07/11 16:22:21;;;;;;;;;;;;;;;;;;5089045;28;20127;-76
2023/07/11 16:24:48;;;;;;;;;;;;;;;;;;5090101;28;19993;-75
2023/07/11 16:27:17;;;;;;;;;;;;;;;;;;5088910;28;19923;-76
2023/07/11 16:29:43;;;;;;;;;;;;;;;;;;5058033;28;19930;-75
2023/07/11 16:32:09;;;;;;;;;;;;;;;;;;5052965;28;19979;-76
2023/07/11 16:34:35;;;;;;;;;;;;;;;;;;5065842;28;19972;-76
2023/07/11 16:37:01;;;;;;;;;;;;;;;;;;5052669;28;19928;-76
2023/07/11 16:39:27;;;;;;;;;;;;;;;;;;5061603;28;19926;-73